»·PEaware :: N55NT L19-KSNA

N55NT :: L19-KSNA

FLIGHT INFORMATION

Flight Status: Arrived
Operator: Privately registered:
United States
More flights under this callsign
Pilot: Craig H. (6968)
Aircraft: SOCATA TBM-900
(TBM9)
More flights by this aircraft type
Origin: L19 Wasco-Kern Co
United States
Destination: KSNA John Wayne-Orange Co
United States
More flights between these airports :: More routes between these airports
Route: +LHS V459 SLI
File this flight plan on PilotEdge
Remarks:
Altitude:
(Current/Filed)
15,000ft
Speed:
(Current/Filed)
210kts
Departed: 23-Mar-20 06:04 PM
Arrived: 23-Mar-20 06:44 PM
Distance/Time
Traveled:
138nm/0:40
Distance/Time
To Go:
Arrived

Flight Plot

Page will automatically refresh every two minutes.

Flight plan parsing failed; only flown route is shown


Map Options




Map Legend


Flown Route
Filed Route
Departure Airport
Arrival Airport
Navaid (VOR, NDB)
Fix

Horizontal Profiles

Position Reports

Time Latitude Longitude Heading Altitude Ground
Speed
23-Mar-20 17:52 35.621041 -119.349689 269 315ft 0kts
23-Mar-20 17:53 35.621041 -119.349689 269 315ft 0kts
23-Mar-20 17:54 35.621041 -119.349689 269 315ft 0kts
23-Mar-20 17:55 35.621041 -119.349689 269 315ft 0kts
23-Mar-20 17:56 35.621041 -119.349690 269 315ft 0kts
23-Mar-20 17:57 35.621040 -119.349749 268 315ft 4kts
23-Mar-20 17:58 35.620453 -119.349895 182 315ft 5kts
23-Mar-20 17:59 35.617980 -119.349919 181 315ft 6kts
23-Mar-20 18:00 35.617717 -119.349920 180 315ft 0kts
23-Mar-20 18:01 35.617180 -119.349932 178 315ft 2kts
23-Mar-20 18:02 35.617417 -119.350771 315 315ft 35kts
23-Mar-20 18:03 35.634679 -119.381936 266 1729ft 145kts
23-Mar-20 18:04 35.599415 -119.383497 147 3658ft 173kts
23-Mar-20 18:05 35.560222 -119.349520 145 5818ft 176kts
23-Mar-20 18:06 35.519722 -119.313504 144 7828ft 184kts
23-Mar-20 18:07 35.478591 -119.276823 145 9959ft 183kts
23-Mar-20 18:08 35.436532 -119.239387 146 12024ft 190kts
23-Mar-20 18:09 35.392831 -119.200536 147 14078ft 200kts
23-Mar-20 18:10 35.343397 -119.156754 146 15030ft 255kts
23-Mar-20 18:11 35.281003 -119.101421 146 15005ft 289kts
23-Mar-20 18:12 35.214933 -119.042990 146 15000ft 294kts
23-Mar-20 18:13 35.148560 -118.984402 147 15002ft 294kts
23-Mar-20 18:14 35.082494 -118.926235 147 15008ft 290kts
23-Mar-20 18:15 35.017445 -118.869050 147 15018ft 286kts
23-Mar-20 18:16 34.953114 -118.812608 149 15024ft 285kts
23-Mar-20 18:17 34.890056 -118.757428 150 15027ft 288kts
23-Mar-20 18:18 34.824323 -118.700043 150 15030ft 293kts
23-Mar-20 18:19 34.757658 -118.641917 150 15029ft 294kts
23-Mar-20 18:20 34.691060 -118.583968 150 15032ft 294kts
23-Mar-20 18:21 34.619521 -118.539688 160 15043ft 289kts
23-Mar-20 18:22 34.546899 -118.497155 160 15045ft 289kts
23-Mar-20 18:23 34.472945 -118.453982 159 14213ft 307kts
23-Mar-20 18:24 34.395469 -118.408751 157 12741ft 308kts
23-Mar-20 18:25 34.318486 -118.363880 157 11253ft 304kts
23-Mar-20 18:26 34.243770 -118.320450 157 9758ft 295kts
23-Mar-20 18:27 34.171394 -118.278470 157 8975ft 274kts
23-Mar-20 18:28 34.104225 -118.239602 157 8960ft 265kts
23-Mar-20 18:29 34.037505 -118.201036 157 8964ft 264kts
23-Mar-20 18:30 33.970206 -118.166979 185 8843ft 261kts
23-Mar-20 18:31 33.898785 -118.180183 191 7183ft 254kts
23-Mar-20 18:32 33.830486 -118.193135 191 6974ft 244kts
23-Mar-20 18:33 33.763295 -118.204480 177 6961ft 247kts
23-Mar-20 18:34 33.736724 -118.128586 91 5609ft 271kts
23-Mar-20 18:35 33.736632 -118.046369 91 4966ft 238kts
23-Mar-20 18:36 33.736223 -117.962727 91 4170ft 266kts
23-Mar-20 18:37 33.747308 -117.884805 24 2956ft 208kts
23-Mar-20 18:38 33.780255 -117.856490 103 2597ft 125kts
23-Mar-20 18:40 33.748924 -117.840925 180 1892ft 139kts
23-Mar-20 18:41 33.715176 -117.846588 200 1089ft 89kts
23-Mar-20 18:42 33.693297 -117.857585 210 425ft 82kts
23-Mar-20 18:43 33.674041 -117.869902 207 59ft 46kts
23-Mar-20 18:44 33.669233 -117.871728 122 59ft 0kts
23-Mar-20 18:45 33.669227 -117.871716 123 59ft 1kts
23-Mar-20 18:46 33.667507 -117.872609 221 59ft 11kts
23-Mar-20 18:47 33.665903 -117.873066 35 59ft 0kts
23-Mar-20 18:48 33.665903 -117.873066 35 59ft 0kts
23-Mar-20 18:49 33.665903 -117.873066 35 59ft 0kts
23-Mar-20 18:50 33.665903 -117.873066 35 59ft 0kts
23-Mar-20 18:51 33.665903 -117.873066 35 59ft 0kts
23-Mar-20 18:52 33.665903 -117.873066 35 59ft 0kts
23-Mar-20 18:53 33.666091 -117.872746 324 59ft 2kts
23-Mar-20 18:54 33.665955 -117.872655 313 59ft 0kts

Navigation Log

Ident Type
Flight plan parsing failed, navigation log unavailable